Time;durP1;ratioP1;P1;durP2;ratioP2;P2;SDS_P1;SDS_P2;PMS_P1;PMS_P2;Temp;Humidity;BMP_temperature;BMP_pressure;BME280_temperature;BME280_humidity;BME280_pressure;Samples;Min_cycle;Max_cycle;Signal;HPM_P1;HPM_P2
2022/10/24 00:00:45;;;;;;;7.82;3.30;;;;;;;15.10;90.51;100257.25;5050357;28;20032;-55
2022/10/24 00:03:11;;;;;;;10.15;3.10;;;;;;;15.09;91.01;100252.03;5048730;28;20036;-55
2022/10/24 00:05:41;;;;;;;9.88;3.22;;;;;;;15.12;89.84;100257.13;5049247;28;20041;-55
2022/10/24 00:08:10;;;;;;;9.55;3.55;;;;;;;15.05;89.39;100243.44;5045555;28;20028;-54
2022/10/24 00:10:35;;;;;;;7.82;3.13;;;;;;;15.02;89.23;100235.69;5049249;28;20098;-54
2022/10/24 00:13:02;;;;;;;9.75;3.92;;;;;;;15.08;89.12;100243.16;5049864;28;20475;-54
2022/10/24 00:15:27;;;;;;;10.25;3.70;;;;;;;15.07;89.11;100252.19;5049373;28;20056;-53
2022/10/24 00:17:53;;;;;;;12.60;4.18;;;;;;;15.08;88.45;100250.34;5050013;28;20492;-55
2022/10/24 00:20:22;;;;;;;15.93;3.63;;;;;;;14.98;88.24;100237.81;5044018;28;20033;-55
2022/10/24 00:22:47;;;;;;;7.85;3.42;;;;;;;15.07;87.84;100241.47;5031773;28;20030;-55
2022/10/24 00:25:13;;;;;;;11.43;3.05;;;;;;;15.04;88.02;100252.47;5043606;28;20082;-54
2022/10/24 00:27:38;;;;;;;8.25;3.00;;;;;;;15.06;87.49;100250.50;5032916;28;20480;-55
2022/10/24 00:30:05;;;;;;;10.73;3.80;;;;;;;15.05;87.01;100242.59;5048692;28;20029;-54
2022/10/24 00:32:31;;;;;;;8.77;3.33;;;;;;;15.01;87.00;100242.03;5039465;28;20036;-53
2022/10/24 00:34:56;;;;;;;9.98;3.58;;;;;;;15.06;86.50;100244.28;5047271;28;20128;-53
2022/10/24 00:37:22;;;;;;;9.20;3.15;;;;;;;15.08;86.16;100242.31;5049321;28;20035;-55
2022/10/24 00:39:49;;;;;;;9.65;3.55;;;;;;;15.07;85.95;100246.81;5050214;28;20028;-54
2022/10/24 00:42:15;;;;;;;7.47;3.15;;;;;;;15.04;86.16;100240.91;5051193;28;20404;-54
2022/10/24 00:44:45;;;;;;;10.27;3.50;;;;;;;15.02;86.46;100238.34;5049870;28;20040;-54
2022/10/24 00:47:18;;;;;;;8.52;3.45;;;;;;;14.98;86.25;100232.44;5045404;28;20022;-54
2022/10/24 00:49:59;;;;;;;7.18;3.17;;;;;;;15.02;85.22;100241.03;5031056;28;20390;-55
2022/10/24 00:52:28;;;;;;;12.45;3.72;;;;;;;14.95;86.41;100226.53;5033237;28;20061;-55
2022/10/24 00:54:55;;;;;;;8.63;3.67;;;;;;;14.99;84.56;100231.44;5041093;28;20112;-55
2022/10/24 00:57:26;;;;;;;6.53;3.40;;;;;;;14.94;86.01;100228.38;5048706;28;20295;-54
2022/10/24 00:59:59;;;;;;;6.93;3.60;;;;;;;14.98;84.70;100232.44;5052229;28;20100;-54
2022/10/24 01:02:25;;;;;;;12.50;3.67;;;;;;;14.95;85.03;100235.41;5053040;28;20482;-54
2022/10/24 01:04:53;;;;;;;7.32;3.35;;;;;;;14.98;84.24;100232.44;5050876;28;20025;-55
2022/10/24 01:07:54;;;;;;;12.68;4.03;;;;;;;14.98;84.45;100229.78;5018327;28;20443;-54
2022/10/24 01:10:34;;;;;;;9.52;3.42;;;;;;;15.02;84.04;100221.44;5036408;28;20033;-55
2022/10/24 01:13:24;;;;;;;8.88;3.33;;;;;;;15.01;83.93;100219.78;5034516;28;20034;-55
2022/10/24 01:15:57;;;;;;;8.52;3.72;;;;;;;15.01;83.39;100223.28;5047383;28;20353;-54
2022/10/24 01:18:35;;;;;;;7.95;3.45;;;;;;;14.96;83.06;100221.03;5054276;28;20053;-55
2022/10/24 01:21:13;;;;;;;10.40;3.83;;;;;;;15.03;82.83;100226.69;5044137;28;20125;-55
2022/10/24 01:23:57;;;;;;;15.45;4.03;;;;;;;15.04;82.73;100216.81;5036117;28;20033;-54
2022/10/24 01:27:13;;;;;;;9.70;3.30;;;;;;;15.08;82.71;100219.03;5052169;28;20037;-54
2022/10/24 01:29:57;;;;;;;6.25;3.47;;;;;;;15.08;81.98;100212.84;5049556;28;20040;-54
2022/10/24 01:33:15;;;;;;;9.45;3.88;;;;;;;15.08;82.04;100218.22;5045674;28;20044;-54
2022/10/24 01:36:09;;;;;;;9.77;3.30;;;;;;;15.05;81.80;100219.34;5049382;28;20021;-54
2022/10/24 01:38:45;;;;;;;8.50;3.78;;;;;;;15.02;81.19;100222.28;5036529;28;20048;-54
2022/10/24 01:41:16;;;;;;;11.52;3.53;;;;;;;15.05;80.80;100221.16;5051712;28;20378;-53
2022/10/24 01:43:56;;;;;;;9.95;3.28;;;;;;;15.12;80.20;100217.78;5053616;28;20031;-53
2022/10/24 01:46:27;;;;;;;8.27;3.30;;;;;;;15.10;80.40;100214.41;5052643;28;20032;-54
2022/10/24 01:49:04;;;;;;;9.13;3.30;;;;;;;15.16;79.63;100205.78;5052290;28;20166;-54
2022/10/24 01:51:32;;;;;;;9.57;3.17;;;;;;;15.19;78.54;100204.66;5052539;28;20029;-54
2022/10/24 01:54:03;;;;;;;6.70;3.00;;;;;;;15.12;79.34;100195.53;5052113;28;20025;-54
2022/10/24 01:56:28;;;;;;;6.28;3.17;;;;;;;15.16;78.80;100199.59;5051562;28;20686;-55
2022/10/24 01:59:04;;;;;;;8.80;3.05;;;;;;;15.13;79.38;100195.38;5053541;28;20546;-55
2022/10/24 02:01:30;;;;;;;7.22;3.08;;;;;;;15.13;78.45;100194.53;5052255;28;20076;-55
2022/10/24 02:04:01;;;;;;;6.88;3.17;;;;;;;15.14;77.64;100189.00;5051234;28;20025;-55
2022/10/24 02:06:35;;;;;;;6.88;3.35;;;;;;;15.24;77.11;100202.41;5051307;28;20025;-55
2022/10/24 02:09:07;;;;;;;8.55;3.13;;;;;;;15.18;78.12;100201.16;5042731;28;20132;-54
2022/10/24 02:11:34;;;;;;;9.13;3.30;;;;;;;15.17;78.09;100203.97;5051830;28;20170;-55
2022/10/24 02:14:30;;;;;;;6.85;2.90;;;;;;;15.18;77.87;100194.97;5052044;28;20073;-54
2022/10/24 02:16:55;;;;;;;7.88;3.55;;;;;;;15.24;76.53;100196.22;5052493;28;20025;-55
2022/10/24 02:19:21;;;;;;;7.82;2.65;;;;;;;15.25;76.65;100189.88;5051889;28;20033;-55
2022/10/24 02:22:34;;;;;;;6.00;2.85;;;;;;;15.21;76.76;100195.50;5038528;28;20057;-55
2022/10/24 02:25:06;;;;;;;9.02;2.90;;;;;;;15.25;76.21;100197.91;5034583;28;20040;-55
2022/10/24 02:27:42;;;;;;;6.07;3.00;;;;;;;15.25;76.13;100195.22;5045088;28;20036;-54
2022/10/24 02:30:14;;;;;;;7.47;2.60;;;;;;;15.20;76.48;100199.16;5032571;28;20037;-55
2022/10/24 02:32:46;;;;;;;6.18;2.78;;;;;;;15.30;74.87;100201.00;5048847;28;20036;-55
2022/10/24 02:35:14;;;;;;;6.95;2.50;;;;;;;15.27;75.21;100195.94;5050808;28;20024;-55
2022/10/24 02:37:46;;;;;;;9.95;3.50;;;;;;;15.25;75.42;100197.91;5051416;28;20170;-54
2022/10/24 02:40:12;;;;;;;3.78;2.45;;;;;;;15.23;75.25;100206.06;5051387;28;20024;-55
2022/10/24 02:42:40;;;;;;;8.73;2.55;;;;;;;15.30;74.44;100203.69;5052175;28;20025;-55
2022/10/24 02:45:08;;;;;;;10.18;3.20;;;;;;;15.30;74.58;100203.69;5051614;28;20116;-55
2022/10/24 02:47:34;;;;;;;6.25;2.50;;;;;;;15.43;72.78;100198.84;5050881;28;20104;-54
2022/10/24 02:50:00;;;;;;;7.15;2.78;;;;;;;15.41;72.90;100206.19;5051336;28;20037;-54
2022/10/24 02:52:26;;;;;;;7.30;2.25;;;;;;;15.43;72.89;100196.16;5051511;28;20083;-55
2022/10/24 02:54:51;;;;;;;7.03;2.60;;;;;;;15.44;73.41;100203.22;5050586;28;20476;-55
2022/10/24 02:57:17;;;;;;;8.43;2.58;;;;;;;15.30;73.75;100179.56;5051576;28;20112;-53
2022/10/24 02:59:43;;;;;;;8.60;2.97;;;;;;;15.46;72.93;100206.59;5066424;28;20123;-55
2022/10/24 03:02:09;;;;;;;5.22;2.13;;;;;;;15.31;73.80;100195.47;5050546;28;20049;-55
2022/10/24 03:04:34;;;;;;;11.18;2.72;;;;;;;15.45;72.96;100199.56;5049821;28;20044;-54
2022/10/24 03:07:02;;;;;;;6.40;2.70;;;;;;;15.40;73.31;100209.84;5049823;28;20033;-54
2022/10/24 03:09:28;;;;;;;6.00;3.03;;;;;;;15.37;73.57;100216.34;5050419;28;20409;-55
2022/10/24 03:11:54;;;;;;;6.80;2.83;;;;;;;15.34;73.57;100205.91;5049789;28;20064;-54
2022/10/24 03:14:19;;;;;;;4.75;2.25;;;;;;;15.27;74.08;100204.81;5050358;28;20033;-54
2022/10/24 03:16:45;;;;;;;7.07;2.92;;;;;;;15.30;73.72;100199.16;5049614;28;20024;-54
2022/10/24 03:19:10;;;;;;;6.65;2.80;;;;;;;15.31;73.47;100197.31;5051570;28;20024;-53
2022/10/24 03:21:36;;;;;;;6.93;2.40;;;;;;;15.31;73.76;100200.00;5050417;28;20033;-54
2022/10/24 03:24:03;;;;;;;7.07;2.60;;;;;;;15.19;74.21;100194.78;5042813;28;20111;-54
2022/10/24 03:26:28;;;;;;;9.50;2.70;;;;;;;15.19;75.30;100199.31;5040715;28;20045;-55
2022/10/24 03:28:54;;;;;;;4.75;2.40;;;;;;;15.07;75.95;100187.91;5052150;28;20079;-55
2022/10/24 03:31:19;;;;;;;5.82;2.60;;;;;;;15.13;74.57;100197.22;5050722;28;20480;-55
2022/10/24 03:33:44;;;;;;;12.23;2.72;;;;;;;15.14;74.81;100205.09;5051111;28;20400;-55
2022/10/24 03:36:10;;;;;;;8.95;2.47;;;;;;;15.11;75.04;100193.81;5048529;28;20171;-53
2022/10/24 03:38:35;;;;;;;8.43;2.67;;;;;;;15.10;75.94;100194.81;5050998;28;20025;-54
2022/10/24 03:41:01;;;;;;;10.88;2.83;;;;;;;15.15;74.68;100188.03;5050080;28;20084;-55
2022/10/24 03:43:32;;;;;;;6.13;2.42;;;;;;;15.13;75.20;100187.34;5049103;28;20036;-55
2022/10/24 03:45:58;;;;;;;8.07;2.63;;;;;;;15.19;75.08;100185.91;5034195;28;20021;-55
2022/10/24 03:48:24;;;;;;;6.40;3.03;;;;;;;15.22;74.25;100191.84;5031864;28;20032;-55
2022/10/24 03:50:49;;;;;;;8.80;3.17;;;;;;;15.25;73.81;100174.63;5046066;28;20119;-55
2022/10/24 03:53:15;;;;;;;7.07;3.00;;;;;;;15.26;74.22;100180.81;5038663;28;20288;-54
2022/10/24 03:55:42;;;;;;;8.77;3.05;;;;;;;15.24;74.54;100177.47;5044599;28;20075;-55
2022/10/24 03:58:08;;;;;;;4.68;2.72;;;;;;;15.09;74.66;100159.16;5049352;28;20507;-55
2022/10/24 04:00:38;;;;;;;6.35;2.78;;;;;;;15.33;73.64;100181.97;5050378;28;20036;-54
2022/10/24 04:03:04;;;;;;;4.28;2.50;;;;;;;15.30;74.32;100193.81;5049687;28;20055;-54
2022/10/24 04:05:30;;;;;;;9.02;2.78;;;;;;;15.30;74.71;100188.44;5050435;28;20052;-55
2022/10/24 04:07:55;;;;;;;11.77;2.95;;;;;;;15.28;74.55;100189.56;5050633;28;20115;-54
2022/10/24 04:10:20;;;;;;;7.07;2.40;;;;;;;15.28;74.47;100197.63;5049627;28;20393;-54
2022/10/24 04:12:46;;;;;;;6.90;2.85;;;;;;;15.24;74.54;100190.88;5048445;28;20420;-55
2022/10/24 04:15:11;;;;;;;9.13;2.90;;;;;;;15.26;74.38;100180.81;5047821;28;20048;-54
2022/10/24 04:17:37;;;;;;;9.63;2.75;;;;;;;15.29;73.95;100194.78;5049236;28;20032;-54
2022/10/24 04:20:05;;;;;;;7.00;2.72;;;;;;;15.25;74.26;100190.69;5047879;28;20025;-55
2022/10/24 04:22:31;;;;;;;8.02;2.65;;;;;;;15.26;74.18;100181.66;5030275;28;20029;-54
2022/10/24 04:24:56;;;;;;;8.77;3.10;;;;;;;15.31;72.98;100175.88;5044946;28;20055;-54
2022/10/24 04:27:24;;;;;;;10.27;3.38;;;;;;;15.32;73.47;100170.38;5036412;28;20044;-53
2022/10/24 04:29:50;;;;;;;8.38;2.67;;;;;;;15.38;73.09;100183.22;5039724;28;20030;-55
2022/10/24 04:32:15;;;;;;;10.48;2.88;;;;;;;15.25;72.92;100166.59;5052071;28;20051;-54
2022/10/24 04:34:40;;;;;;;6.70;2.65;;;;;;;15.30;73.56;100176.88;5053452;28;20028;-53
2022/10/24 04:37:06;;;;;;;7.28;2.53;;;;;;;15.39;72.50;100189.41;5041289;28;20029;-55
2022/10/24 04:39:31;;;;;;;9.60;2.55;;;;;;;15.32;73.02;100197.16;5032115;28;20037;-55
2022/10/24 04:41:57;;;;;;;8.82;2.90;;;;;;;15.35;72.83;100183.50;5052781;28;20384;-54
2022/10/24 04:44:25;;;;;;;6.53;2.50;;;;;;;15.28;73.00;100174.34;5054498;28;20025;-54
2022/10/24 04:46:53;;;;;;;8.02;2.35;;;;;;;15.32;73.24;100182.94;5053324;28;20419;-55
2022/10/24 04:49:19;;;;;;;9.05;2.78;;;;;;;15.30;73.53;100190.28;5053379;28;20480;-54
2022/10/24 04:51:44;;;;;;;11.13;2.60;;;;;;;15.31;73.41;100186.59;5040430;28;20045;-55
2022/10/24 04:54:10;;;;;;;10.30;3.10;;;;;;;15.31;73.54;100183.94;5034500;28;20034;-54
2022/10/24 04:56:35;;;;;;;9.05;2.75;;;;;;;15.35;73.52;100190.69;5049993;28;20090;-54
2022/10/24 04:59:00;;;;;;;9.23;3.08;;;;;;;15.37;73.62;100181.50;5046349;28;20029;-55
2022/10/24 05:01:26;;;;;;;7.32;2.70;;;;;;;15.42;72.79;100181.09;5044428;28;20134;-54
2022/10/24 05:03:53;;;;;;;5.70;2.75;;;;;;;15.42;73.10;100195.34;5052635;28;20103;-54
2022/10/24 05:06:21;;;;;;;7.68;2.67;;;;;;;15.45;73.21;100187.00;5052474;28;20127;-54
2022/10/24 05:08:46;;;;;;;6.97;2.50;;;;;;;15.41;73.57;100182.94;5052957;28;20099;-54
2022/10/24 05:11:12;;;;;;;6.50;2.83;;;;;;;15.42;73.31;100191.81;5034606;28;20140;-54
2022/10/24 05:13:38;;;;;;;8.85;2.85;;;;;;;15.39;73.84;100192.09;5036529;28;20029;-54
2022/10/24 05:16:04;;;;;;;8.23;2.95;;;;;;;15.39;73.73;100189.41;5018039;28;20128;-54
2022/10/24 05:18:30;;;;;;;10.43;3.20;;;;;;;15.36;74.26;100197.75;5049744;28;20423;-54
2022/10/24 05:20:57;;;;;;;7.25;2.75;;;;;;;15.38;73.88;100196.63;5044319;28;20491;-54
2022/10/24 05:23:23;;;;;;;7.05;2.55;;;;;;;15.37;74.44;100221.72;5043993;28;20029;-54
2022/10/24 05:25:48;;;;;;;14.02;3.28;;;;;;;15.43;73.94;100198.84;5045446;28;20094;-54
2022/10/24 05:28:17;;;;;;;7.63;2.70;;;;;;;15.39;74.28;100203.66;5053260;28;20037;-54
2022/10/24 05:30:45;;;;;;;11.73;3.15;;;;;;;15.45;73.95;100205.75;5047572;28;20061;-54
2022/10/24 05:33:14;;;;;;;8.53;3.03;;;;;;;15.35;74.37;100191.56;5034045;28;20108;-55
2022/10/24 05:35:40;;;;;;;9.00;2.65;;;;;;;15.43;74.55;100204.22;5047075;28;20383;-55
2022/10/24 05:38:08;;;;;;;10.82;3.00;;;;;;;15.41;74.72;100204.38;5052850;28;20025;-55
2022/10/24 05:40:33;;;;;;;8.35;2.40;;;;;;;15.48;74.16;100215.34;5046953;28;20025;-54
2022/10/24 05:42:59;;;;;;;13.02;3.17;;;;;;;15.45;74.56;100211.13;5019413;28;20545;-55
2022/10/24 05:45:24;;;;;;;9.95;3.20;;;;;;;15.51;74.04;100220.44;5042309;28;20040;-54
2022/10/24 05:47:50;;;;;;;6.97;2.67;;;;;;;15.54;73.62;100219.28;5052245;28;20130;-54
2022/10/24 05:50:15;;;;;;;11.35;3.42;;;;;;;15.53;73.10;100207.72;5052443;28;20036;-54
2022/10/24 05:52:41;;;;;;;5.93;2.50;;;;;;;15.63;73.02;100216.59;5052054;28;20029;-54
2022/10/24 05:55:08;;;;;;;7.65;3.17;;;;;;;15.57;73.61;100216.31;5053280;28;20028;-55
2022/10/24 05:57:36;;;;;;;9.95;2.88;;;;;;;15.59;73.33;100212.50;5053558;28;20021;-54
2022/10/24 06:00:07;;;;;;;9.65;3.15;;;;;;;15.54;73.28;100208.56;5053603;28;20021;-55
2022/10/24 06:02:33;;;;;;;8.32;3.05;;;;;;;15.51;73.47;100216.91;5052167;28;20032;-55
2022/10/24 06:05:01;;;;;;;10.80;3.05;;;;;;;15.52;73.51;100229.31;5051753;28;20396;-54
2022/10/24 06:07:26;;;;;;;10.27;3.45;;;;;;;15.50;73.62;100233.94;5051740;28;20032;-55
2022/10/24 06:09:52;;;;;;;11.88;3.13;;;;;;;15.56;73.08;100223.53;5038672;28;20052;-55
2022/10/24 06:12:18;;;;;;;8.32;3.53;;;;;;;15.49;73.59;100224.22;5046929;28;20052;-55
2022/10/24 06:14:45;;;;;;;8.18;2.88;;;;;;;15.47;73.86;100220.84;5052811;28;20041;-55
2022/10/24 06:17:11;;;;;;;11.55;3.33;;;;;;;15.37;74.15;100216.34;5046674;28;20060;-55
2022/10/24 06:19:38;;;;;;;8.18;3.33;;;;;;;15.38;74.23;100222.53;5040611;28;20108;-55
2022/10/24 06:22:06;;;;;;;9.77;2.50;;;;;;;15.32;74.95;100236.53;5048360;28;20033;-55
2022/10/24 06:24:36;;;;;;;10.45;3.15;;;;;;;15.33;74.56;100230.19;5032591;28;20438;-55
2022/10/24 06:27:03;;;;;;;12.60;3.58;;;;;;;15.32;74.63;100236.53;5033132;28;20487;-55
2022/10/24 06:29:28;;;;;;;11.50;3.75;;;;;;;15.27;75.15;100220.03;5038377;28;20304;-55
2022/10/24 06:31:54;;;;;;;11.43;3.03;;;;;;;15.29;74.95;100228.75;5032127;28;20033;-54
2022/10/24 06:34:19;;;;;;;8.93;2.80;;;;;;;15.24;74.91;100223.84;5031633;28;20080;-54
2022/10/24 06:36:44;;;;;;;14.75;3.75;;;;;;;15.26;75.08;100240.59;5033796;28;20365;-54
2022/10/24 06:39:10;;;;;;;11.90;3.10;;;;;;;15.22;75.49;100255.28;5039607;28;20045;-55
2022/10/24 06:41:35;;;;;;;9.48;3.10;;;;;;;15.20;75.54;100251.91;5052261;28;20087;-54
2022/10/24 06:44:02;;;;;;;13.82;3.40;;;;;;;15.21;75.63;100254.44;5049853;28;20457;-54
2022/10/24 06:46:30;;;;;;;10.90;3.00;;;;;;;15.16;76.00;100234.44;5052447;28;20025;-54
2022/10/24 06:48:55;;;;;;;8.63;2.90;;;;;;;15.19;75.50;100250.22;5050760;28;20025;-54
2022/10/24 06:51:22;;;;;;;11.73;3.42;;;;;;;15.15;76.11;100255.00;5045401;28;20124;-54
2022/10/24 06:53:48;;;;;;;14.50;3.30;;;;;;;15.20;75.76;100267.97;5049303;28;20031;-54
2022/10/24 06:56:16;;;;;;;10.40;3.33;;;;;;;15.24;75.81;100273.91;5037713;28;20025;-54
2022/10/24 06:58:44;;;;;;;10.02;3.33;;;;;;;15.26;75.95;100280.78;5045189;28;20082;-54
2022/10/24 07:01:13;;;;;;;10.95;3.15;;;;;;;15.30;76.34;100292.09;5050356;28;20032;-52
2022/10/24 07:03:39;;;;;;;10.85;3.45;;;;;;;15.26;77.38;100278.13;5038552;28;20415;-53
2022/10/24 07:06:14;;;;;;;10.25;2.83;;;;;;;15.23;77.99;100278.41;5051031;28;20063;-54
2022/10/24 07:08:40;;;;;;;12.30;3.63;;;;;;;15.14;78.78;100280.09;5046755;28;20071;-55
2022/10/24 07:11:05;;;;;;;10.65;3.65;;;;;;;15.04;79.21;100270.38;5049767;28;20473;-54
2022/10/24 07:13:31;;;;;;;11.27;3.35;;;;;;;14.97;79.97;100280.78;5046019;28;20106;-54
2022/10/24 07:15:56;;;;;;;12.70;3.45;;;;;;;14.97;80.09;100289.69;5051792;28;20427;-54
2022/10/24 07:18:24;;;;;;;11.90;3.42;;;;;;;14.89;80.85;100284.16;5052141;28;20047;-53
2022/10/24 07:20:49;;;;;;;11.20;3.17;;;;;;;14.90;81.22;100295.72;5051866;28;20017;-54
2022/10/24 07:23:14;;;;;;;18.73;4.15;;;;;;;14.88;81.62;100298.56;5051863;28;20032;-54
2022/10/24 07:25:40;;;;;;;11.77;3.00;;;;;;;14.94;81.25;100303.34;5051446;28;20033;-53
2022/10/24 07:28:07;;;;;;;10.50;3.60;;;;;;;14.94;81.40;100308.72;5051488;28;20508;-54
2022/10/24 07:30:33;;;;;;;10.57;2.88;;;;;;;15.02;81.13;100315.19;5051517;28;20052;-54
2022/10/24 07:32:58;;;;;;;9.30;3.17;;;;;;;15.10;80.13;100321.53;5051697;28;20118;-54
2022/10/24 07:35:24;;;;;;;13.32;3.47;;;;;;;15.14;79.91;100324.78;5051508;28;20029;-55
2022/10/24 07:37:49;;;;;;;12.32;3.00;;;;;;;15.16;79.65;100322.81;5051473;28;20029;-54
2022/10/24 07:40:15;;;;;;;10.05;3.42;;;;;;;15.19;79.03;100333.25;5049966;28;20025;-53
2022/10/24 07:42:40;;;;;;;14.32;4.10;;;;;;;15.25;78.61;100321.97;5051330;28;20056;-54
2022/10/24 07:45:07;;;;;;;10.52;3.78;;;;;;;15.30;78.49;100330.47;5051487;28;20028;-53
2022/10/24 07:47:33;;;;;;;14.70;3.55;;;;;;;15.29;77.66;100331.41;5051183;28;20035;-54
2022/10/24 07:49:58;;;;;;;12.40;3.05;;;;;;;15.36;77.57;100348.66;5051531;28;20037;-54
2022/10/24 07:52:24;;;;;;;14.65;3.78;;;;;;;15.41;77.86;100358.94;5050290;28;20423;-54
2022/10/24 07:54:52;;;;;;;11.93;3.33;;;;;;;15.44;77.46;100361.34;5050820;28;20040;-54
2022/10/24 07:57:18;;;;;;;10.80;3.10;;;;;;;15.44;77.72;100355.97;5050735;28;20053;-54
2022/10/24 07:59:43;;;;;;;9.65;2.65;;;;;;;15.47;77.15;100369.13;5049570;28;20374;-53
2022/10/24 08:02:13;;;;;;;11.63;2.65;;;;;;;15.52;77.00;100384.75;5052158;28;20036;-54
2022/10/24 08:04:39;;;;;;;11.05;3.42;;;;;;;15.56;76.92;100365.59;5054181;28;20025;-52
2022/10/24 08:07:11;;;;;;;11.57;3.17;;;;;;;15.56;76.92;100378.13;5055454;28;20083;-54
2022/10/24 08:09:42;;;;;;;16.00;3.55;;;;;;;15.53;77.68;100379.28;5053902;28;20041;-54
2022/10/24 08:12:08;;;;;;;14.25;3.72;;;;;;;15.59;76.99;100392.13;5055928;28;20402;-54
2022/10/24 08:14:35;;;;;;;8.98;3.10;;;;;;;15.57;77.64;100398.59;5053863;28;20511;-54
2022/10/24 08:17:01;;;;;;;11.60;3.40;;;;;;;15.64;77.49;100397.88;5054737;28;20116;-54
2022/10/24 08:19:26;;;;;;;8.02;2.60;;;;;;;15.66;77.60;100413.84;5055309;28;20452;-54
2022/10/24 08:21:52;;;;;;;10.27;3.20;;;;;;;15.71;76.84;100402.75;5053985;28;20029;-54
2022/10/24 08:24:17;;;;;;;13.07;3.20;;;;;;;15.81;76.38;100406.25;5054641;28;20372;-54
2022/10/24 08:26:43;;;;;;;14.25;2.97;;;;;;;15.89;76.18;100401.88;5053162;28;20384;-53
2022/10/24 08:29:13;;;;;;;9.38;2.78;;;;;;;15.92;74.90;100400.75;5055060;28;20115;-54
2022/10/24 08:31:39;;;;;;;9.48;2.85;;;;;;;15.85;75.82;100407.66;5055216;28;20021;-53
2022/10/24 08:34:05;;;;;;;17.08;3.92;;;;;;;15.84;75.90;100403.28;5055068;28;20029;-54
2022/10/24 08:36:35;;;;;;;10.10;3.50;;;;;;;15.84;75.43;100412.19;5044474;28;20021;-54
2022/10/24 08:39:01;;;;;;;10.52;2.55;;;;;;;15.74;76.46;100415.88;5033829;28;20488;-54
2022/10/24 08:41:37;;;;;;;9.65;3.35;;;;;;;15.67;77.08;100423.56;5033112;28;20104;-54
2022/10/24 08:44:24;;;;;;;12.43;4.07;;;;;;;15.71;76.12;100413.47;5034894;28;20075;-53
2022/10/24 08:46:54;;;;;;;13.60;3.60;;;;;;;15.59;77.26;100437.69;5035938;28;20037;-53
2022/10/24 08:49:44;;;;;;;14.90;3.97;;;;;;;15.63;76.89;100427.53;5034848;28;20029;-52
2022/10/24 08:52:22;;;;;;;10.68;3.28;;;;;;;15.70;76.47;100422.47;5034669;28;20060;-54
2022/10/24 08:54:49;;;;;;;10.63;2.97;;;;;;;15.72;75.34;100407.94;5034360;28;20108;-54
2022/10/24 08:57:35;;;;;;;13.93;3.42;;;;;;;15.83;75.61;100420.38;5035101;28;20456;-53
2022/10/24 09:00:15;;;;;;;10.82;2.65;;;;;;;15.86;74.45;100422.78;5034254;28;20026;-53
2022/10/24 09:02:42;;;;;;;10.13;2.95;;;;;;;15.98;73.82;100424.31;5034520;28;20100;-54
2022/10/24 09:05:28;;;;;;;11.63;3.22;;;;;;;16.08;73.33;100422.47;5034350;28;20425;-54
2022/10/24 09:08:03;;;;;;;10.40;2.80;;;;;;;16.15;72.99;100430.81;5034345;28;20052;-54
2022/10/24 09:10:45;;;;;;;11.35;2.80;;;;;;;16.18;73.58;100418.91;5033503;28;20060;-53
2022/10/24 09:13:16;;;;;;;11.82;2.97;;;;;;;16.28;73.40;100428.66;5034034;28;20443;-54
2022/10/24 09:15:44;;;;;;;10.85;3.30;;;;;;;16.36;73.11;100438.69;5033055;28;20035;-53
2022/10/24 09:18:22;;;;;;;11.32;2.90;;;;;;;16.51;72.35;100442.59;5034428;28;20496;-55
2022/10/24 09:20:49;;;;;;;14.25;3.20;;;;;;;16.52;71.86;100428.16;5034180;28;20025;-53
2022/10/24 09:23:16;;;;;;;16.42;3.58;;;;;;;16.64;71.09;100455.69;5050070;28;20025;-53
2022/10/24 09:25:47;;;;;;;11.43;3.35;;;;;;;16.58;71.97;100446.38;5050323;28;20035;-54
2022/10/24 09:28:12;;;;;;;10.05;3.08;;;;;;;16.60;72.03;100448.94;5054277;28;20028;-54
2022/10/24 09:30:43;;;;;;;10.77;3.47;;;;;;;16.70;72.32;100440.84;5052818;28;20039;-54
2022/10/24 09:33:25;;;;;;;12.73;3.83;;;;;;;16.72;71.22;100447.75;5052831;28;20060;-54
2022/10/24 09:35:54;;;;;;;12.25;3.17;;;;;;;16.63;71.21;100447.81;5039749;28;20086;-54
2022/10/24 09:38:26;;;;;;;13.10;3.50;;;;;;;16.54;71.41;100457.56;5033893;28;20052;-54
2022/10/24 09:40:57;;;;;;;13.32;3.40;;;;;;;16.48;72.48;100452.78;5048579;28;20018;-54
2022/10/24 09:43:33;;;;;;;17.10;3.58;;;;;;;16.56;72.25;100463.66;5033824;28;20488;-54
2022/10/24 09:46:06;;;;;;;11.38;3.40;;;;;;;16.61;71.67;100469.41;5034866;28;20431;-54
2022/10/24 09:48:40;;;;;;;14.63;3.40;;;;;;;16.66;71.48;100474.38;5050172;28;20037;-54
2022/10/24 09:51:07;;;;;;;12.00;3.42;;;;;;;16.80;71.63;100477.47;5053598;28;20057;-53
2022/10/24 09:53:39;;;;;;;15.68;3.85;;;;;;;16.85;71.60;100477.00;5053244;28;20025;-54
2022/10/24 09:56:17;;;;;;;11.93;3.53;;;;;;;17.03;70.64;100487.84;5051338;28;20476;-54
2022/10/24 09:58:43;;;;;;;12.07;3.80;;;;;;;17.05;69.47;100487.69;5049974;28;20037;-54
2022/10/24 10:01:21;;;;;;;11.35;3.22;;;;;;;17.07;68.88;100491.09;5053437;28;20086;-54
2022/10/24 10:04:02;;;;;;;14.25;3.70;;;;;;;17.10;69.69;100480.03;5053380;28;20025;-54
2022/10/24 10:06:27;;;;;;;12.82;3.30;;;;;;;17.13;68.73;100490.50;5036597;28;20045;-55
2022/10/24 10:08:56;;;;;;;16.33;3.88;;;;;;;17.05;69.91;100499.28;5032857;28;20045;-54
2022/10/24 10:11:31;;;;;;;11.50;3.30;;;;;;;16.94;70.16;100492.28;5045929;28;20036;-54
2022/10/24 10:14:00;;;;;;;16.73;3.10;;;;;;;16.88;70.06;100495.50;5050752;28;20472;-54
2022/10/24 10:16:30;;;;;;;14.05;3.10;;;;;;;16.65;71.15;100507.56;5073003;28;20027;-53
2022/10/24 10:19:12;;;;;;;12.90;3.85;;;;;;;16.88;69.39;100508.09;5050705;28;20074;-54
2022/10/24 10:22:00;;;;;;;11.02;3.03;;;;;;;17.31;68.94;100506.69;5050639;28;20033;-54
2022/10/24 10:24:39;;;;;;;11.82;3.47;;;;;;;17.73;67.78;100508.84;5040840;28;20082;-54
2022/10/24 10:27:36;;;;;;;15.98;3.45;;;;;;;18.16;67.42;100514.38;5033319;28;20021;-55
2022/10/24 10:30:09;;;;;;;10.38;2.90;;;;;;;18.53;65.20;100518.72;5032730;28;20034;-53
2022/10/24 10:32:49;;;;;;;12.68;3.05;;;;;;;18.73;63.05;100527.47;5033104;28;20022;-54
2022/10/24 10:35:31;;;;;;;10.15;3.13;;;;;;;18.26;64.94;100524.19;5051549;28;20112;-54
2022/10/24 10:38:24;;;;;;;12.68;2.95;;;;;;;17.91;64.79;100533.94;5040190;28;20045;-54
2022/10/24 10:41:00;;;;;;;13.70;3.35;;;;;;;17.64;67.27;100542.88;5032293;28;20048;-55
2022/10/24 10:43:38;;;;;;;14.10;3.33;;;;;;;17.52;67.24;100544.91;5032971;28;20444;-54
2022/10/24 10:46:19;;;;;;;9.38;3.00;;;;;;;17.30;68.24;100550.69;5082704;28;20496;-54
2022/10/24 10:48:55;;;;;;;14.63;3.33;;;;;;;17.00;71.53;100542.72;5051310;28;20369;-54
2022/10/24 10:51:26;;;;;;;9.43;2.97;;;;;;;16.81;72.64;100556.19;5050066;28;20037;-54
2022/10/24 10:54:19;;;;;;;10.95;2.70;;;;;;;16.64;73.84;100567.63;5052941;28;20021;-54
2022/10/24 10:57:01;;;;;;;10.55;2.88;;;;;;;16.42;75.66;100566.09;5047104;28;20104;-54
2022/10/24 11:00:01;;;;;;;17.27;3.53;;;;;;;16.34;75.91;100564.13;5043938;28;20083;-55
2022/10/24 11:02:59;;;;;;;12.38;3.35;;;;;;;16.19;77.74;100573.56;5042927;28;20044;-54
2022/10/24 11:05:27;;;;;;;11.85;3.17;;;;;;;16.06;78.59;100577.38;5034946;28;20099;-54
2022/10/24 11:08:13;;;;;;;9.93;2.85;;;;;;;15.97;79.49;100564.81;5035596;28;20051;-54
2022/10/24 11:10:45;;;;;;;14.40;3.65;;;;;;;16.04;79.56;100576.66;5048808;28;20107;-52
2022/10/24 11:13:38;;;;;;;11.25;3.25;;;;;;;16.78;78.34;100556.47;5051139;28;20496;-53
2022/10/24 11:16:13;;;;;;;11.18;3.30;;;;;;;17.93;73.00;100581.25;5048743;28;20051;-54
2022/10/24 11:18:42;;;;;;;9.38;2.90;;;;;;;18.64;71.76;100570.66;5045475;28;20373;-55
2022/10/24 11:21:10;;;;;;;11.05;2.45;;;;;;;19.35;67.67;100569.63;5036456;28;20028;-55
2022/10/24 11:23:45;;;;;;;9.77;2.53;;;;;;;20.08;68.25;100574.50;5031093;28;20048;-55
2022/10/24 11:26:41;;;;;;;9.63;2.30;;;;;;;20.13;66.28;100574.84;5042587;28;20472;-55
2022/10/24 11:29:25;;;;;;;12.23;2.85;;;;;;;19.52;65.78;100572.25;5042295;28;20038;-55
2022/10/24 11:31:59;;;;;;;8.23;2.20;;;;;;;19.22;66.58;100573.63;5035361;28;20035;-55
2022/10/24 11:34:36;;;;;;;12.07;3.25;;;;;;;19.01;67.56;100565.91;5031378;28;20492;-54
2022/10/24 11:37:06;;;;;;;11.35;2.92;;;;;;;19.25;67.15;100575.16;5048585;28;20041;-54